TAP1907 LPPT-LPFR
Flight info
| Callsign | TAP1907 |
|---|---|
| Flight time | N/A |
| Altitude | 23000 |
| Route | DUZOP DCT ODEMI |
| Aircraft | A20N/M-SDE3FGHIRWY/LB1 |
Departure
| Time | 2026-05-04 19:48 |
|---|---|
| Airport | Lisbon Humberto Delgado Airport (LPPT) |
Arrival
| Time | N/A |
|---|---|
| Airport | Faro - Gago Coutinho International Airport (LPFR) |
| Time | Latitude | Longitude | Altitude | Speed | Heading |
|---|---|---|---|---|---|
| 2026-05-04 19:37 | 38.76741 | -9.13902 | 351 ft | 0 kts | 258° |
| 2026-05-04 19:42 | 38.76741 | -9.13900 | 344 ft | 1 kts | 258° |
| 2026-05-04 19:42 | 38.76746 | -9.13870 | 356 ft | 4 kts | 258° |
| 2026-05-04 19:42 | 38.76754 | -9.13837 | 350 ft | 4 kts | 238° |
| 2026-05-04 19:43 | 38.76771 | -9.13816 | 354 ft | 4 kts | 189° |
| 2026-05-04 19:43 | 38.76781 | -9.13815 | 354 ft | 0 kts | 167° |
| 2026-05-04 19:45 | 38.76778 | -9.13814 | 355 ft | 3 kts | 167° |
| 2026-05-04 19:45 | 38.76724 | -9.13799 | 345 ft | 9 kts | 169° |
| 2026-05-04 19:45 | 38.76677 | -9.13835 | 349 ft | 11 kts | 237° |
| 2026-05-04 19:45 | 38.76654 | -9.13947 | 347 ft | 15 kts | 255° |
| 2026-05-04 19:46 | 38.76610 | -9.14081 | 343 ft | 17 kts | 237° |
| 2026-05-04 19:46 | 38.76588 | -9.14236 | 335 ft | 20 kts | 278° |
| 2026-05-04 19:46 | 38.76647 | -9.14388 | 334 ft | 14 kts | 304° |
| 2026-05-04 19:46 | 38.76678 | -9.14376 | 336 ft | 4 kts | 30° |
| 2026-05-04 19:47 | 38.76748 | -9.14332 | 337 ft | 31 kts | 24° |
| 2026-05-04 19:47 | 38.77178 | -9.14103 | 361 ft | 100 kts | 27° |
| 2026-05-04 19:47 | 38.77998 | -9.13675 | 370 ft | 153 kts | 18° |
| 2026-05-04 19:47 | 38.79067 | -9.13226 | 849 ft | 162 kts | 18° |
| 2026-05-04 19:48 | 38.80108 | -9.12678 | 1633 ft | 162 kts | 18° |
| 2026-05-04 19:48 | 38.81187 | -9.12074 | 2158 ft | 180 kts | 22° |
| 2026-05-04 19:48 | 38.82344 | -9.11207 | 2529 ft | 206 kts | 28° |
| 2026-05-04 19:48 | 38.83540 | -9.10179 | 2963 ft | 232 kts | 37° |
| 2026-05-04 19:49 | 38.84434 | -9.08326 | 3491 ft | 263 kts | 74° |
| 2026-05-04 19:49 | 38.84290 | -9.05942 | 4363 ft | 279 kts | 110° |
| 2026-05-04 19:49 | 38.83096 | -9.03983 | 5337 ft | 284 kts | 146° |
| 2026-05-04 19:49 | 38.81327 | -9.02887 | 6402 ft | 282 kts | 163° |
| 2026-05-04 19:50 | 38.79501 | -9.01963 | 7313 ft | 286 kts | 152° |
| 2026-05-04 19:50 | 38.77776 | -9.00629 | 8207 ft | 291 kts | 148° |
| 2026-05-04 19:50 | 38.76082 | -8.99167 | 9085 ft | 297 kts | 147° |
| 2026-05-04 19:50 | 38.74372 | -8.97644 | 9927 ft | 303 kts | 147° |
| 2026-05-04 19:51 | 38.72605 | -8.96078 | 10501 ft | 318 kts | 147° |
| 2026-05-04 19:51 | 38.70703 | -8.94427 | 10837 ft | 341 kts | 148° |
| 2026-05-04 19:51 | 38.68703 | -8.92714 | 11464 ft | 350 kts | 148° |
| 2026-05-04 19:51 | 38.66651 | -8.90978 | 12245 ft | 356 kts | 149° |
| 2026-05-04 19:52 | 38.64559 | -8.89226 | 13011 ft | 361 kts | 150° |
| 2026-05-04 19:52 | 38.62440 | -8.87461 | 13750 ft | 366 kts | 150° |
| 2026-05-04 19:52 | 38.60288 | -8.85668 | 14441 ft | 371 kts | 150° |
| 2026-05-04 19:52 | 38.58114 | -8.83853 | 15090 ft | 376 kts | 150° |
| 2026-05-04 19:53 | 38.55913 | -8.82014 | 15740 ft | 380 kts | 150° |
| 2026-05-04 19:53 | 38.53714 | -8.80174 | 16371 ft | 384 kts | 151° |
| 2026-05-04 19:53 | 38.51465 | -8.78292 | 17026 ft | 389 kts | 151° |
| 2026-05-04 19:53 | 38.49194 | -8.76391 | 17681 ft | 393 kts | 151° |
| 2026-05-04 19:54 | 38.46891 | -8.74467 | 18332 ft | 397 kts | 152° |
| 2026-05-04 19:54 | 38.44568 | -8.72529 | 18893 ft | 401 kts | 152° |